sensor_id;sensor_type;location;lat;lon;timestamp;pressure;altitude;pressure_sealevel;temperature
74539;BMP180;66042;51.090;-115.340;2023-08-12T00:01:45;86709.80;;;38.24
74539;BMP180;66042;51.090;-115.340;2023-08-12T00:04:12;86709.60;;;37.42
74539;BMP180;66042;51.090;-115.340;2023-08-12T00:06:42;86713.40;;;36.42
74539;BMP180;66042;51.090;-115.340;2023-08-12T00:09:10;86717.60;;;35.18
74539;BMP180;66042;51.090;-115.340;2023-08-12T00:11:42;86716.60;;;34.18
74539;BMP180;66042;51.090;-115.340;2023-08-12T00:14:09;86713.80;;;33.32
74539;BMP180;66042;51.090;-115.340;2023-08-12T00:16:36;86713.60;;;32.46
74539;BMP180;66042;51.090;-115.340;2023-08-12T00:19:03;86704.80;;;31.88
74539;BMP180;66042;51.090;-115.340;2023-08-12T00:21:30;86712.20;;;31.34
74539;BMP180;66042;51.090;-115.340;2023-08-12T00:23:58;86715.20;;;30.66
74539;BMP180;66042;51.090;-115.340;2023-08-12T00:26:25;86712.20;;;30.20
74539;BMP180;66042;51.090;-115.340;2023-08-12T00:28:53;86712.00;;;29.82
74539;BMP180;66042;51.090;-115.340;2023-08-12T00:31:20;86704.80;;;29.50
74539;BMP180;66042;51.090;-115.340;2023-08-12T00:33:47;86700.00;;;29.18
74539;BMP180;66042;51.090;-115.340;2023-08-12T00:36:13;86698.20;;;28.84
74539;BMP180;66042;51.090;-115.340;2023-08-12T00:38:40;86699.60;;;28.52
74539;BMP180;66042;51.090;-115.340;2023-08-12T00:41:07;86702.20;;;28.20
74539;BMP180;66042;51.090;-115.340;2023-08-12T00:43:34;86699.00;;;27.82
74539;BMP180;66042;51.090;-115.340;2023-08-12T00:46:01;86701.40;;;27.50
74539;BMP180;66042;51.090;-115.340;2023-08-12T00:48:29;86702.80;;;27.20
74539;BMP180;66042;51.090;-115.340;2023-08-12T00:50:56;86707.80;;;26.76
74539;BMP180;66042;51.090;-115.340;2023-08-12T00:53:23;86702.20;;;26.40
74539;BMP180;66042;51.090;-115.340;2023-08-12T00:55:50;86700.80;;;26.20
74539;BMP180;66042;51.090;-115.340;2023-08-12T00:58:17;86700.00;;;25.90
74539;BMP180;66042;51.090;-115.340;2023-08-12T01:00:44;86695.20;;;25.80
74539;BMP180;66042;51.090;-115.340;2023-08-12T01:03:11;86696.00;;;25.64
74539;BMP180;66042;51.090;-115.340;2023-08-12T01:05:38;86698.40;;;25.42
74539;BMP180;66042;51.090;-115.340;2023-08-12T01:08:05;86690.80;;;25.30
74539;BMP180;66042;51.090;-115.340;2023-08-12T01:10:36;86689.40;;;25.20
74539;BMP180;66042;51.090;-115.340;2023-08-12T01:13:25;86686.00;;;25.20
74539;BMP180;66042;51.090;-115.340;2023-08-12T01:15:59;86681.40;;;25.20
74539;BMP180;66042;51.090;-115.340;2023-08-12T01:18:29;86681.20;;;25.00
74539;BMP180;66042;51.090;-115.340;2023-08-12T01:20:56;86678.60;;;24.80
74539;BMP180;66042;51.090;-115.340;2023-08-12T01:23:24;86678.20;;;24.70
74539;BMP180;66042;51.090;-115.340;2023-08-12T01:25:52;86677.00;;;24.60
74539;BMP180;66042;51.090;-115.340;2023-08-12T01:28:19;86674.00;;;24.42
74539;BMP180;66042;51.090;-115.340;2023-08-12T01:31:08;86675.00;;;24.24
74539;BMP180;66042;51.090;-115.340;2023-08-12T01:33:55;86673.20;;;24.10
74539;BMP180;66042;51.090;-115.340;2023-08-12T01:36:27;86684.00;;;23.90
74539;BMP180;66042;51.090;-115.340;2023-08-12T01:38:58;86684.60;;;23.80
74539;BMP180;66042;51.090;-115.340;2023-08-12T01:41:26;86687.00;;;23.70
74539;BMP180;66042;51.090;-115.340;2023-08-12T01:43:53;86684.60;;;23.60
74539;BMP180;66042;51.090;-115.340;2023-08-12T01:46:22;86681.60;;;23.60
74539;BMP180;66042;51.090;-115.340;2023-08-12T01:48:49;86687.20;;;23.50
74539;BMP180;66042;51.090;-115.340;2023-08-12T01:51:16;86688.40;;;23.40
74539;BMP180;66042;51.090;-115.340;2023-08-12T01:53:43;86691.60;;;23.32
74539;BMP180;66042;51.090;-115.340;2023-08-12T01:56:10;86692.60;;;23.30
74539;BMP180;66042;51.090;-115.340;2023-08-12T01:58:37;86689.60;;;23.20
74539;BMP180;66042;51.090;-115.340;2023-08-12T02:01:04;86689.00;;;23.10
74539;BMP180;66042;51.090;-115.340;2023-08-12T02:03:31;86694.40;;;23.00
74539;BMP180;66042;51.090;-115.340;2023-08-12T02:05:58;86689.20;;;22.90
74539;BMP180;66042;51.090;-115.340;2023-08-12T02:08:25;86689.20;;;22.80
74539;BMP180;66042;51.090;-115.340;2023-08-12T02:10:52;86685.00;;;22.70
74539;BMP180;66042;51.090;-115.340;2023-08-12T02:13:19;86690.20;;;22.70
74539;BMP180;66042;51.090;-115.340;2023-08-12T02:15:46;86695.00;;;22.60
74539;BMP180;66042;51.090;-115.340;2023-08-12T02:18:13;86695.20;;;22.40
74539;BMP180;66042;51.090;-115.340;2023-08-12T02:20:41;86686.80;;;22.30
74539;BMP180;66042;51.090;-115.340;2023-08-12T02:23:08;86683.00;;;22.14
74539;BMP180;66042;51.090;-115.340;2023-08-12T02:25:35;86680.00;;;22.10
74539;BMP180;66042;51.090;-115.340;2023-08-12T02:28:03;86680.00;;;22.00
74539;BMP180;66042;51.090;-115.340;2023-08-12T02:30:30;86687.40;;;21.90
74539;BMP180;66042;51.090;-115.340;2023-08-12T02:32:57;86683.60;;;21.80
74539;BMP180;66042;51.090;-115.340;2023-08-12T02:35:24;86683.80;;;21.70
74539;BMP180;66042;51.090;-115.340;2023-08-12T02:37:51;86685.00;;;21.60
74539;BMP180;66042;51.090;-115.340;2023-08-12T02:40:18;86685.00;;;21.50
74539;BMP180;66042;51.090;-115.340;2023-08-12T02:42:45;86687.40;;;21.38
74539;BMP180;66042;51.090;-115.340;2023-08-12T02:45:12;86684.40;;;21.22
74539;BMP180;66042;51.090;-115.340;2023-08-12T02:47:39;86684.40;;;21.20
74539;BMP180;66042;51.090;-115.340;2023-08-12T02:50:06;86687.40;;;21.10
74539;BMP180;66042;51.090;-115.340;2023-08-12T02:52:35;86687.80;;;21.00
74539;BMP180;66042;51.090;-115.340;2023-08-12T02:55:02;86689.20;;;21.00
74539;BMP180;66042;51.090;-115.340;2023-08-12T02:57:30;86693.20;;;20.90
74539;BMP180;66042;51.090;-115.340;2023-08-12T02:59:57;86696.00;;;20.80
74539;BMP180;66042;51.090;-115.340;2023-08-12T03:02:24;86701.20;;;20.70
74539;BMP180;66042;51.090;-115.340;2023-08-12T03:04:52;86704.00;;;20.60
74539;BMP180;66042;51.090;-115.340;2023-08-12T03:07:20;86704.80;;;20.60
74539;BMP180;66042;51.090;-115.340;2023-08-12T03:09:46;86704.60;;;20.50
74539;BMP180;66042;51.090;-115.340;2023-08-12T03:12:13;86700.80;;;20.40
74539;BMP180;66042;51.090;-115.340;2023-08-12T03:14:40;86702.60;;;20.30
74539;BMP180;66042;51.090;-115.340;2023-08-12T03:17:06;86703.60;;;20.20
74539;BMP180;66042;51.090;-115.340;2023-08-12T03:19:34;86704.40;;;20.10
74539;BMP180;66042;51.090;-115.340;2023-08-12T03:22:01;86709.40;;;19.98
74539;BMP180;66042;51.090;-115.340;2023-08-12T03:24:28;86708.80;;;19.90
74539;BMP180;66042;51.090;-115.340;2023-08-12T03:26:55;86704.20;;;19.80
74539;BMP180;66042;51.090;-115.340;2023-08-12T03:29:22;86704.60;;;19.70
74539;BMP180;66042;51.090;-115.340;2023-08-12T03:31:48;86707.60;;;19.60
74539;BMP180;66042;51.090;-115.340;2023-08-12T03:34:15;86711.80;;;19.50
74539;BMP180;66042;51.090;-115.340;2023-08-12T03:36:43;86720.40;;;19.40
74539;BMP180;66042;51.090;-115.340;2023-08-12T03:39:12;86724.20;;;19.30
74539;BMP180;66042;51.090;-115.340;2023-08-12T03:41:39;86725.20;;;19.30
74539;BMP180;66042;51.090;-115.340;2023-08-12T03:44:07;86717.60;;;19.20
74539;BMP180;66042;51.090;-115.340;2023-08-12T03:46:34;86722.20;;;19.10
74539;BMP180;66042;51.090;-115.340;2023-08-12T03:49:01;86725.60;;;19.00
74539;BMP180;66042;51.090;-115.340;2023-08-12T03:51:27;86733.80;;;18.90
74539;BMP180;66042;51.090;-115.340;2023-08-12T03:53:55;86735.80;;;18.90
74539;BMP180;66042;51.090;-115.340;2023-08-12T03:56:22;86729.60;;;18.80
74539;BMP180;66042;51.090;-115.340;2023-08-12T03:58:49;86733.40;;;18.70
74539;BMP180;66042;51.090;-115.340;2023-08-12T04:01:17;86731.20;;;18.70
74539;BMP180;66042;51.090;-115.340;2023-08-12T04:03:44;86737.80;;;18.58
74539;BMP180;66042;51.090;-115.340;2023-08-12T04:06:11;86736.20;;;18.40
74539;BMP180;66042;51.090;-115.340;2023-08-12T04:08:38;86736.00;;;18.40
74539;BMP180;66042;51.090;-115.340;2023-08-12T04:11:05;86734.60;;;18.40
74539;BMP180;66042;51.090;-115.340;2023-08-12T04:13:32;86743.60;;;18.30
74539;BMP180;66042;51.090;-115.340;2023-08-12T04:15:59;86744.20;;;18.30
74539;BMP180;66042;51.090;-115.340;2023-08-12T04:18:27;86745.60;;;18.20
74539;BMP180;66042;51.090;-115.340;2023-08-12T04:20:54;86750.80;;;18.20
74539;BMP180;66042;51.090;-115.340;2023-08-12T04:23:21;86748.20;;;18.12
74539;BMP180;66042;51.090;-115.340;2023-08-12T04:25:48;86753.00;;;18.10
74539;BMP180;66042;51.090;-115.340;2023-08-12T04:28:16;86751.80;;;18.00
74539;BMP180;66042;51.090;-115.340;2023-08-12T04:30:48;86747.00;;;18.00
74539;BMP180;66042;51.090;-115.340;2023-08-12T04:33:17;86747.20;;;17.90
74539;BMP180;66042;51.090;-115.340;2023-08-12T04:35:44;86749.80;;;17.90
74539;BMP180;66042;51.090;-115.340;2023-08-12T04:38:11;86750.00;;;17.80
74539;BMP180;66042;51.090;-115.340;2023-08-12T04:40:42;86751.20;;;17.80
74539;BMP180;66042;51.090;-115.340;2023-08-12T04:43:10;86751.40;;;17.70
74539;BMP180;66042;51.090;-115.340;2023-08-12T04:45:38;86752.60;;;17.70
74539;BMP180;66042;51.090;-115.340;2023-08-12T04:48:06;86750.60;;;17.64
74539;BMP180;66042;51.090;-115.340;2023-08-12T04:50:34;86749.80;;;17.60
74539;BMP180;66042;51.090;-115.340;2023-08-12T04:53:01;86748.60;;;17.50
74539;BMP180;66042;51.090;-115.340;2023-08-12T04:55:28;86749.60;;;17.50
74539;BMP180;66042;51.090;-115.340;2023-08-12T04:57:56;86751.00;;;17.48
74539;BMP180;66042;51.090;-115.340;2023-08-12T05:00:23;86755.80;;;17.40
74539;BMP180;66042;51.090;-115.340;2023-08-12T05:02:50;86756.80;;;17.30
74539;BMP180;66042;51.090;-115.340;2023-08-12T05:05:17;86758.00;;;17.30
74539;BMP180;66042;51.090;-115.340;2023-08-12T05:07:44;86753.20;;;17.30
74539;BMP180;66042;51.090;-115.340;2023-08-12T05:10:16;86747.40;;;17.30
74539;BMP180;66042;51.090;-115.340;2023-08-12T05:12:44;86753.80;;;17.28
74539;BMP180;66042;51.090;-115.340;2023-08-12T05:15:11;86757.80;;;17.20
74539;BMP180;66042;51.090;-115.340;2023-08-12T05:17:39;86753.80;;;17.20
74539;BMP180;66042;51.090;-115.340;2023-08-12T05:20:07;86751.00;;;17.10
74539;BMP180;66042;51.090;-115.340;2023-08-12T05:22:35;86758.40;;;17.10
74539;BMP180;66042;51.090;-115.340;2023-08-12T05:25:02;86754.00;;;17.10
74539;BMP180;66042;51.090;-115.340;2023-08-12T05:27:29;86754.80;;;17.00
74539;BMP180;66042;51.090;-115.340;2023-08-12T05:29:56;86761.40;;;17.00
74539;BMP180;66042;51.090;-115.340;2023-08-12T05:32:22;86757.80;;;16.94
74539;BMP180;66042;51.090;-115.340;2023-08-12T05:34:56;86757.80;;;16.90
74539;BMP180;66042;51.090;-115.340;2023-08-12T05:37:22;86752.00;;;16.86
74539;BMP180;66042;51.090;-115.340;2023-08-12T05:39:49;86752.40;;;16.80
74539;BMP180;66042;51.090;-115.340;2023-08-12T05:42:17;86757.60;;;16.76
74539;BMP180;66042;51.090;-115.340;2023-08-12T05:44:44;86760.00;;;16.70
74539;BMP180;66042;51.090;-115.340;2023-08-12T05:47:10;86755.60;;;16.70
74539;BMP180;66042;51.090;-115.340;2023-08-12T05:49:37;86751.80;;;16.60
74539;BMP180;66042;51.090;-115.340;2023-08-12T05:52:04;86744.60;;;16.60
74539;BMP180;66042;51.090;-115.340;2023-08-12T05:54:32;86748.00;;;16.60
74539;BMP180;66042;51.090;-115.340;2023-08-12T05:56:59;86753.60;;;16.54
74539;BMP180;66042;51.090;-115.340;2023-08-12T05:59:27;86756.40;;;16.50
74539;BMP180;66042;51.090;-115.340;2023-08-12T06:01:54;86751.60;;;16.40
74539;BMP180;66042;51.090;-115.340;2023-08-12T06:04:21;86745.80;;;16.36
74539;BMP180;66042;51.090;-115.340;2023-08-12T06:06:49;86742.80;;;16.30
74539;BMP180;66042;51.090;-115.340;2023-08-12T06:09:15;86749.40;;;16.30
74539;BMP180;66042;51.090;-115.340;2023-08-12T06:11:42;86742.60;;;16.28
74539;BMP180;66042;51.090;-115.340;2023-08-12T06:14:09;86750.20;;;16.30
74539;BMP180;66042;51.090;-115.340;2023-08-12T06:16:36;86752.80;;;16.20
74539;BMP180;66042;51.090;-115.340;2023-08-12T06:19:03;86754.00;;;16.20
74539;BMP180;66042;51.090;-115.340;2023-08-12T06:21:30;86749.80;;;16.20
74539;BMP180;66042;51.090;-115.340;2023-08-12T06:23:57;86750.60;;;16.20
74539;BMP180;66042;51.090;-115.340;2023-08-12T06:26:24;86748.20;;;16.10
74539;BMP180;66042;51.090;-115.340;2023-08-12T06:28:51;86748.40;;;16.12
74539;BMP180;66042;51.090;-115.340;2023-08-12T06:31:18;86750.40;;;16.10
74539;BMP180;66042;51.090;-115.340;2023-08-12T06:33:45;86748.80;;;16.12
74539;BMP180;66042;51.090;-115.340;2023-08-12T06:36:12;86744.00;;;16.12
74539;BMP180;66042;51.090;-115.340;2023-08-12T06:38:39;86748.60;;;16.10
74539;BMP180;66042;51.090;-115.340;2023-08-12T06:41:06;86744.60;;;16.10
74539;BMP180;66042;51.090;-115.340;2023-08-12T06:43:33;86746.60;;;16.10
74539;BMP180;66042;51.090;-115.340;2023-08-12T06:46:01;86747.60;;;16.10
74539;BMP180;66042;51.090;-115.340;2023-08-12T06:48:29;86738.00;;;16.00
74539;BMP180;66042;51.090;-115.340;2023-08-12T06:50:56;86740.00;;;16.00
74539;BMP180;66042;51.090;-115.340;2023-08-12T06:53:26;86742.60;;;16.00
74539;BMP180;66042;51.090;-115.340;2023-08-12T06:55:53;86739.40;;;16.00
74539;BMP180;66042;51.090;-115.340;2023-08-12T06:58:21;86736.40;;;16.00
74539;BMP180;66042;51.090;-115.340;2023-08-12T07:00:48;86742.40;;;16.00
74539;BMP180;66042;51.090;-115.340;2023-08-12T07:03:15;86743.40;;;16.00
74539;BMP180;66042;51.090;-115.340;2023-08-12T07:05:42;86738.40;;;16.00
74539;BMP180;66042;51.090;-115.340;2023-08-12T07:08:09;86745.60;;;15.98
74539;BMP180;66042;51.090;-115.340;2023-08-12T07:10:39;86749.40;;;15.90
74539;BMP180;66042;51.090;-115.340;2023-08-12T07:13:06;86747.80;;;15.90
74539;BMP180;66042;51.090;-115.340;2023-08-12T07:15:33;86752.40;;;15.90
74539;BMP180;66042;51.090;-115.340;2023-08-12T07:18:01;86749.40;;;15.90
74539;BMP180;66042;51.090;-115.340;2023-08-12T07:20:28;86758.20;;;15.90
74539;BMP180;66042;51.090;-115.340;2023-08-12T07:22:55;86759.80;;;15.90
74539;BMP180;66042;51.090;-115.340;2023-08-12T07:25:22;86757.60;;;15.80
74539;BMP180;66042;51.090;-115.340;2023-08-12T07:27:49;86761.20;;;15.80
74539;BMP180;66042;51.090;-115.340;2023-08-12T07:30:16;86756.40;;;15.80
74539;BMP180;66042;51.090;-115.340;2023-08-12T07:32:43;86750.00;;;15.78
74539;BMP180;66042;51.090;-115.340;2023-08-12T07:35:10;86752.00;;;15.72
74539;BMP180;66042;51.090;-115.340;2023-08-12T07:37:37;86759.60;;;15.70
74539;BMP180;66042;51.090;-115.340;2023-08-12T07:40:05;86757.60;;;15.70
74539;BMP180;66042;51.090;-115.340;2023-08-12T07:42:32;86753.40;;;15.74
74539;BMP180;66042;51.090;-115.340;2023-08-12T07:44:59;86763.40;;;15.70
74539;BMP180;66042;51.090;-115.340;2023-08-12T07:47:25;86763.00;;;15.70
74539;BMP180;66042;51.090;-115.340;2023-08-12T07:49:52;86765.60;;;15.70
74539;BMP180;66042;51.090;-115.340;2023-08-12T07:52:18;86761.80;;;15.70
74539;BMP180;66042;51.090;-115.340;2023-08-12T07:54:45;86763.20;;;15.70
74539;BMP180;66042;51.090;-115.340;2023-08-12T07:57:13;86764.40;;;15.66
74539;BMP180;66042;51.090;-115.340;2023-08-12T07:59:40;86759.80;;;15.60
74539;BMP180;66042;51.090;-115.340;2023-08-12T08:02:07;86756.40;;;15.62
74539;BMP180;66042;51.090;-115.340;2023-08-12T08:04:34;86763.00;;;15.64
74539;BMP180;66042;51.090;-115.340;2023-08-12T08:07:01;86765.80;;;15.60
74539;BMP180;66042;51.090;-115.340;2023-08-12T08:09:27;86763.60;;;15.60
74539;BMP180;66042;51.090;-115.340;2023-08-12T08:11:54;86761.00;;;15.60
74539;BMP180;66042;51.090;-115.340;2023-08-12T08:14:21;86759.00;;;15.60
74539;BMP180;66042;51.090;-115.340;2023-08-12T08:16:48;86758.20;;;15.58
74539;BMP180;66042;51.090;-115.340;2023-08-12T08:19:15;86757.80;;;15.54
74539;BMP180;66042;51.090;-115.340;2023-08-12T08:21:42;86755.00;;;15.52
74539;BMP180;66042;51.090;-115.340;2023-08-12T08:24:09;86753.40;;;15.50
74539;BMP180;66042;51.090;-115.340;2023-08-12T08:26:39;86761.80;;;15.50
74539;BMP180;66042;51.090;-115.340;2023-08-12T08:29:09;86765.40;;;15.50
74539;BMP180;66042;51.090;-115.340;2023-08-12T08:31:35;86770.00;;;15.50
74539;BMP180;66042;51.090;-115.340;2023-08-12T08:34:02;86768.80;;;15.50
74539;BMP180;66042;51.090;-115.340;2023-08-12T08:36:30;86769.20;;;15.50
74539;BMP180;66042;51.090;-115.340;2023-08-12T08:38:57;86769.80;;;15.50
74539;BMP180;66042;51.090;-115.340;2023-08-12T08:41:24;86765.40;;;15.50
74539;BMP180;66042;51.090;-115.340;2023-08-12T08:43:55;86770.00;;;15.50
74539;BMP180;66042;51.090;-115.340;2023-08-12T08:46:23;86770.80;;;15.50
74539;BMP180;66042;51.090;-115.340;2023-08-12T08:48:51;86763.80;;;15.50
74539;BMP180;66042;51.090;-115.340;2023-08-12T08:51:19;86768.40;;;15.42
74539;BMP180;66042;51.090;-115.340;2023-08-12T08:53:48;86771.20;;;15.40
74539;BMP180;66042;51.090;-115.340;2023-08-12T08:56:15;86770.60;;;15.40
74539;BMP180;66042;51.090;-115.340;2023-08-12T08:58:42;86761.60;;;15.40
74539;BMP180;66042;51.090;-115.340;2023-08-12T09:01:09;86762.80;;;15.40
74539;BMP180;66042;51.090;-115.340;2023-08-12T09:03:39;86773.60;;;15.40
74539;BMP180;66042;51.090;-115.340;2023-08-12T09:06:07;86777.60;;;15.32
74539;BMP180;66042;51.090;-115.340;2023-08-12T09:08:35;86772.20;;;15.30
74539;BMP180;66042;51.090;-115.340;2023-08-12T09:11:03;86775.00;;;15.30
74539;BMP180;66042;51.090;-115.340;2023-08-12T09:13:31;86772.00;;;15.30
74539;BMP180;66042;51.090;-115.340;2023-08-12T09:15:58;86770.60;;;15.30
74539;BMP180;66042;51.090;-115.340;2023-08-12T09:18:26;86761.40;;;15.26
74539;BMP180;66042;51.090;-115.340;2023-08-12T09:20:56;86771.20;;;15.30
74539;BMP180;66042;51.090;-115.340;2023-08-12T09:23:23;86772.00;;;15.30
74539;BMP180;66042;51.090;-115.340;2023-08-12T09:25:52;86782.00;;;15.30
74539;BMP180;66042;51.090;-115.340;2023-08-12T09:28:18;86778.00;;;15.20
74539;BMP180;66042;51.090;-115.340;2023-08-12T09:30:52;86777.00;;;15.20
74539;BMP180;66042;51.090;-115.340;2023-08-12T09:33:25;86771.60;;;15.26
74539;BMP180;66042;51.090;-115.340;2023-08-12T09:35:57;86781.60;;;15.30
74539;BMP180;66042;51.090;-115.340;2023-08-12T09:38:25;86779.60;;;15.26
74539;BMP180;66042;51.090;-115.340;2023-08-12T09:40:53;86776.00;;;15.22
74539;BMP180;66042;51.090;-115.340;2023-08-12T09:43:26;86783.60;;;15.20
74539;BMP180;66042;51.090;-115.340;2023-08-12T09:45:56;86782.60;;;15.20
74539;BMP180;66042;51.090;-115.340;2023-08-12T09:48:26;86784.80;;;15.20
74539;BMP180;66042;51.090;-115.340;2023-08-12T09:50:53;86788.60;;;15.20
74539;BMP180;66042;51.090;-115.340;2023-08-12T09:53:23;86792.80;;;15.20
74539;BMP180;66042;51.090;-115.340;2023-08-12T09:55:53;86795.60;;;15.20
74539;BMP180;66042;51.090;-115.340;2023-08-12T09:58:23;86796.20;;;15.20
74539;BMP180;66042;51.090;-115.340;2023-08-12T10:00:51;86798.80;;;15.20
74539;BMP180;66042;51.090;-115.340;2023-08-12T10:03:20;86802.60;;;15.16
74539;BMP180;66042;51.090;-115.340;2023-08-12T10:05:48;86813.80;;;15.10
74539;BMP180;66042;51.090;-115.340;2023-08-12T10:08:15;86814.40;;;15.10
74539;BMP180;66042;51.090;-115.340;2023-08-12T10:10:43;86813.80;;;15.10
74539;BMP180;66042;51.090;-115.340;2023-08-12T10:13:11;86817.40;;;15.10
74539;BMP180;66042;51.090;-115.340;2023-08-12T10:15:38;86818.40;;;15.10
74539;BMP180;66042;51.090;-115.340;2023-08-12T10:18:06;86821.40;;;15.10
74539;BMP180;66042;51.090;-115.340;2023-08-12T10:20:35;86821.40;;;15.10
74539;BMP180;66042;51.090;-115.340;2023-08-12T10:23:04;86821.40;;;15.00
74539;BMP180;66042;51.090;-115.340;2023-08-12T10:25:33;86824.60;;;15.00
74539;BMP180;66042;51.090;-115.340;2023-08-12T10:28:01;86827.40;;;15.00
74539;BMP180;66042;51.090;-115.340;2023-08-12T10:30:32;86830.80;;;15.00
74539;BMP180;66042;51.090;-115.340;2023-08-12T10:33:01;86831.80;;;15.00
74539;BMP180;66042;51.090;-115.340;2023-08-12T10:35:47;86832.20;;;15.00
74539;BMP180;66042;51.090;-115.340;2023-08-12T10:38:19;86834.60;;;15.00
74539;BMP180;66042;51.090;-115.340;2023-08-12T10:40:47;86837.40;;;15.00
74539;BMP180;66042;51.090;-115.340;2023-08-12T10:43:15;86835.80;;;15.00
74539;BMP180;66042;51.090;-115.340;2023-08-12T10:45:53;86840.00;;;15.00
74539;BMP180;66042;51.090;-115.340;2023-08-12T10:48:24;86842.80;;;15.00
74539;BMP180;66042;51.090;-115.340;2023-08-12T10:50:58;86840.40;;;15.00
74539;BMP180;66042;51.090;-115.340;2023-08-12T10:53:31;86834.20;;;15.00
74539;BMP180;66042;51.090;-115.340;2023-08-12T10:56:04;86830.80;;;15.00
74539;BMP180;66042;51.090;-115.340;2023-08-12T10:58:47;86828.80;;;15.00
74539;BMP180;66042;51.090;-115.340;2023-08-12T11:01:17;86830.00;;;15.00
74539;BMP180;66042;51.090;-115.340;2023-08-12T11:03:44;86833.00;;;15.00
74539;BMP180;66042;51.090;-115.340;2023-08-12T11:06:12;86833.40;;;15.00
74539;BMP180;66042;51.090;-115.340;2023-08-12T11:08:56;86825.20;;;15.00
74539;BMP180;66042;51.090;-115.340;2023-08-12T11:11:26;86826.00;;;15.00
74539;BMP180;66042;51.090;-115.340;2023-08-12T11:13:56;86837.00;;;15.00
74539;BMP180;66042;51.090;-115.340;2023-08-12T11:16:36;86839.80;;;15.00
74539;BMP180;66042;51.090;-115.340;2023-08-12T11:19:04;86834.60;;;15.00
74539;BMP180;66042;51.090;-115.340;2023-08-12T11:21:33;86837.80;;;15.00
74539;BMP180;66042;51.090;-115.340;2023-08-12T11:24:03;86845.40;;;15.00
74539;BMP180;66042;51.090;-115.340;2023-08-12T11:26:30;86844.00;;;15.00
74539;BMP180;66042;51.090;-115.340;2023-08-12T11:28:57;86842.60;;;15.00
74539;BMP180;66042;51.090;-115.340;2023-08-12T11:31:25;86845.40;;;15.00
74539;BMP180;66042;51.090;-115.340;2023-08-12T11:33:54;86846.60;;;15.00
74539;BMP180;66042;51.090;-115.340;2023-08-12T11:36:21;86848.20;;;14.92
74539;BMP180;66042;51.090;-115.340;2023-08-12T11:38:47;86849.20;;;14.90
74539;BMP180;66042;51.090;-115.340;2023-08-12T11:41:17;86845.00;;;14.90
74539;BMP180;66042;51.090;-115.340;2023-08-12T11:43:44;86845.00;;;14.90
74539;BMP180;66042;51.090;-115.340;2023-08-12T11:46:11;86847.20;;;14.90
74539;BMP180;66042;51.090;-115.340;2023-08-12T11:48:38;86851.00;;;14.80
74539;BMP180;66042;51.090;-115.340;2023-08-12T11:51:05;86848.80;;;14.80
74539;BMP180;66042;51.090;-115.340;2023-08-12T11:53:32;86850.00;;;14.80
74539;BMP180;66042;51.090;-115.340;2023-08-12T11:56:00;86851.60;;;14.80
74539;BMP180;66042;51.090;-115.340;2023-08-12T11:58:36;86852.40;;;14.80
74539;BMP180;66042;51.090;-115.340;2023-08-12T12:01:04;86851.40;;;14.80
74539;BMP180;66042;51.090;-115.340;2023-08-12T12:03:30;86851.60;;;14.80
74539;BMP180;66042;51.090;-115.340;2023-08-12T12:05:57;86849.80;;;14.80
74539;BMP180;66042;51.090;-115.340;2023-08-12T12:08:24;86849.40;;;14.80
74539;BMP180;66042;51.090;-115.340;2023-08-12T12:10:52;86849.00;;;14.80
74539;BMP180;66042;51.090;-115.340;2023-08-12T12:13:21;86852.60;;;14.80
74539;BMP180;66042;51.090;-115.340;2023-08-12T12:15:50;86852.20;;;14.80
74539;BMP180;66042;51.090;-115.340;2023-08-12T12:18:17;86849.80;;;14.72
74539;BMP180;66042;51.090;-115.340;2023-08-12T12:21:03;86852.80;;;14.70
74539;BMP180;66042;51.090;-115.340;2023-08-12T12:23:31;86856.20;;;14.70
74539;BMP180;66042;51.090;-115.340;2023-08-12T12:26:02;86857.00;;;14.70
74539;BMP180;66042;51.090;-115.340;2023-08-12T12:28:30;86859.60;;;14.70
74539;BMP180;66042;51.090;-115.340;2023-08-12T12:30:57;86863.40;;;14.70
74539;BMP180;66042;51.090;-115.340;2023-08-12T12:33:24;86865.40;;;14.70
74539;BMP180;66042;51.090;-115.340;2023-08-12T12:35:51;86865.40;;;14.70
74539;BMP180;66042;51.090;-115.340;2023-08-12T12:38:18;86870.00;;;14.70
74539;BMP180;66042;51.090;-115.340;2023-08-12T12:40:44;86872.40;;;14.70
74539;BMP180;66042;51.090;-115.340;2023-08-12T12:43:11;86875.20;;;14.70
74539;BMP180;66042;51.090;-115.340;2023-08-12T12:45:38;86877.60;;;14.70
74539;BMP180;66042;51.090;-115.340;2023-08-12T12:48:05;86879.20;;;14.70
74539;BMP180;66042;51.090;-115.340;2023-08-12T12:50:32;86878.80;;;14.70
74539;BMP180;66042;51.090;-115.340;2023-08-12T12:53:00;86877.60;;;14.70
74539;BMP180;66042;51.090;-115.340;2023-08-12T12:55:26;86881.40;;;14.70
74539;BMP180;66042;51.090;-115.340;2023-08-12T12:57:54;86887.60;;;14.70
74539;BMP180;66042;51.090;-115.340;2023-08-12T13:00:20;86886.80;;;14.66
74539;BMP180;66042;51.090;-115.340;2023-08-12T13:02:47;86888.60;;;14.60
74539;BMP180;66042;51.090;-115.340;2023-08-12T13:05:14;86890.00;;;14.60
74539;BMP180;66042;51.090;-115.340;2023-08-12T13:07:41;86893.80;;;14.60
74539;BMP180;66042;51.090;-115.340;2023-08-12T13:10:08;86898.80;;;14.60
74539;BMP180;66042;51.090;-115.340;2023-08-12T13:12:35;86900.40;;;14.66
74539;BMP180;66042;51.090;-115.340;2023-08-12T13:15:03;86899.60;;;14.60
74539;BMP180;66042;51.090;-115.340;2023-08-12T13:17:30;86899.80;;;14.60
74539;BMP180;66042;51.090;-115.340;2023-08-12T13:19:56;86903.40;;;14.60
74539;BMP180;66042;51.090;-115.340;2023-08-12T13:22:23;86903.40;;;14.60
74539;BMP180;66042;51.090;-115.340;2023-08-12T13:24:50;86906.80;;;14.62
74539;BMP180;66042;51.090;-115.340;2023-08-12T13:27:17;86908.60;;;14.62
74539;BMP180;66042;51.090;-115.340;2023-08-12T13:29:44;86908.60;;;14.64
74539;BMP180;66042;51.090;-115.340;2023-08-12T13:32:12;86909.00;;;14.60
74539;BMP180;66042;51.090;-115.340;2023-08-12T13:34:39;86914.60;;;14.62
74539;BMP180;66042;51.090;-115.340;2023-08-12T13:37:06;86915.80;;;14.64